Neosho Falls, Kansas
Current Conditions -  °F | °C
As of 8:52 PM on Friday 31 Oct 2014 (Local Time) from KCNU Reporting Station
Clear Clear  
Wind Chill:   Ceiling: Unl
Heat Index:   Visibility: 10mi
Dew Point: -6°   Wind: 3mph
Humidity: 59%   Direction: 10°N
Pressure: 30.44"   Gusts: NA
Location:  38.01°N, 95.56°W
Report Text: KCNU 010152Z AUTO 01003KT 10SM CLR 01/M06 A3044 RMK AO2 SLP313 T00111061
Loading
Personal Weather Stations






























Interactive Weather Map
Tropical Storm Tracking
New forecast layout! Learn more

10-Day Weather Forecast

Advertisements
Track Severe Weather on mobile